sensor_id;sensor_type;location;lat;lon;timestamp;pressure;altitude;pressure_sealevel;temperature;humidity
26859;BME280;14429;48.346;16.338;2022-10-16T00:02:18;99947.34;;;18.06;60.18
26859;BME280;14429;48.346;16.338;2022-10-16T00:04:43;99951.19;;;17.84;61.31
26859;BME280;14429;48.346;16.338;2022-10-16T00:07:09;99949.19;;;17.86;61.28
26859;BME280;14429;48.346;16.338;2022-10-16T00:09:34;99954.88;;;18.11;60.49
26859;BME280;14429;48.346;16.338;2022-10-16T00:11:59;99953.41;;;18.26;60.20
26859;BME280;14429;48.346;16.338;2022-10-16T00:14:25;99953.41;;;18.26;59.85
26859;BME280;14429;48.346;16.338;2022-10-16T00:16:52;99956.22;;;18.34;59.49
26859;BME280;14429;48.346;16.338;2022-10-16T00:19:18;99955.38;;;18.34;59.58
26859;BME280;14429;48.346;16.338;2022-10-16T00:21:43;99957.63;;;18.38;59.40
26859;BME280;14429;48.346;16.338;2022-10-16T00:24:09;99952.06;;;18.39;59.28
26859;BME280;14429;48.346;16.338;2022-10-16T00:26:36;99960.00;;;18.50;58.96
26859;BME280;14429;48.346;16.338;2022-10-16T00:29:02;99955.16;;;18.54;58.78
26859;BME280;14429;48.346;16.338;2022-10-16T00:31:28;99960.16;;;18.39;59.05
26859;BME280;14429;48.346;16.338;2022-10-16T00:33:55;99959.00;;;17.22;64.39
26859;BME280;14429;48.346;16.338;2022-10-16T00:36:22;99956.91;;;17.63;62.08
26859;BME280;14429;48.346;16.338;2022-10-16T00:38:51;99948.22;;;17.78;61.24
26859;BME280;14429;48.346;16.338;2022-10-16T00:41:17;99962.28;;;17.44;61.35
26859;BME280;14429;48.346;16.338;2022-10-16T00:43:44;99965.09;;;18.08;60.61
26859;BME280;14429;48.346;16.338;2022-10-16T00:46:14;99971.31;;;18.27;59.85
26859;BME280;14429;48.346;16.338;2022-10-16T00:48:40;99972.44;;;18.34;59.44
26859;BME280;14429;48.346;16.338;2022-10-16T00:51:08;99978.84;;;18.33;59.40
26859;BME280;14429;48.346;16.338;2022-10-16T00:53:34;99975.19;;;17.97;59.43
26859;BME280;14429;48.346;16.338;2022-10-16T00:56:01;99975.28;;;18.23;59.73
26859;BME280;14429;48.346;16.338;2022-10-16T00:58:27;99971.63;;;18.15;59.06
26859;BME280;14429;48.346;16.338;2022-10-16T01:00:52;99983.84;;;17.72;60.99
26859;BME280;14429;48.346;16.338;2022-10-16T01:03:24;99976.19;;;17.77;60.76
26859;BME280;14429;48.346;16.338;2022-10-16T01:05:58;99979.31;;;17.45;62.68
26859;BME280;14429;48.346;16.338;2022-10-16T01:08:33;99983.00;;;16.47;67.63
26859;BME280;14429;48.346;16.338;2022-10-16T01:11:09;99969.50;;;17.34;63.55
26859;BME280;14429;48.346;16.338;2022-10-16T01:13:41;99967.38;;;17.75;61.66
26859;BME280;14429;48.346;16.338;2022-10-16T01:16:12;99970.22;;;18.02;60.66
26859;BME280;14429;48.346;16.338;2022-10-16T01:18:41;99972.47;;;18.15;60.11
26859;BME280;14429;48.346;16.338;2022-10-16T01:21:10;99972.03;;;18.20;59.92
26859;BME280;14429;48.346;16.338;2022-10-16T01:23:48;99961.38;;;18.18;59.90
26859;BME280;14429;48.346;16.338;2022-10-16T01:26:35;99961.91;;;18.31;59.40
26859;BME280;14429;48.346;16.338;2022-10-16T01:29:07;99971.41;;;18.35;59.32
26859;BME280;14429;48.346;16.338;2022-10-16T01:31:37;99975.84;;;18.36;59.20
26859;BME280;14429;48.346;16.338;2022-10-16T01:34:07;99973.25;;;18.44;59.11
26859;BME280;14429;48.346;16.338;2022-10-16T01:36:37;99970.41;;;18.45;58.84
26859;BME280;14429;48.346;16.338;2022-10-16T01:39:04;99972.50;;;17.78;61.25
26859;BME280;14429;48.346;16.338;2022-10-16T01:41:35;99957.13;;;18.25;59.84
26859;BME280;14429;48.346;16.338;2022-10-16T01:44:06;99961.97;;;17.94;60.54
26859;BME280;14429;48.346;16.338;2022-10-16T01:46:36;99962.00;;;18.03;60.44
26859;BME280;14429;48.346;16.338;2022-10-16T01:49:03;99964.38;;;18.25;59.54
26859;BME280;14429;48.346;16.338;2022-10-16T01:51:30;99967.03;;;18.34;59.25
26859;BME280;14429;48.346;16.338;2022-10-16T01:53:58;99967.59;;;18.37;59.16
26859;BME280;14429;48.346;16.338;2022-10-16T01:56:25;99969.53;;;18.45;58.89
26859;BME280;14429;48.346;16.338;2022-10-16T01:58:54;99967.53;;;18.47;58.78
26859;BME280;14429;48.346;16.338;2022-10-16T02:01:24;99968.41;;;18.47;58.65
26859;BME280;14429;48.346;16.338;2022-10-16T02:03:54;99967.84;;;18.44;58.69
26859;BME280;14429;48.346;16.338;2022-10-16T02:06:20;99972.94;;;18.47;58.61
26859;BME280;14429;48.346;16.338;2022-10-16T02:08:46;99971.81;;;18.49;58.57
26859;BME280;14429;48.346;16.338;2022-10-16T02:11:12;99967.25;;;18.50;58.60
26859;BME280;14429;48.346;16.338;2022-10-16T02:13:39;99964.97;;;18.55;58.41
26859;BME280;14429;48.346;16.338;2022-10-16T02:16:07;99975.06;;;18.53;58.46
26859;BME280;14429;48.346;16.338;2022-10-16T02:18:33;99973.75;;;18.57;58.40
26859;BME280;14429;48.346;16.338;2022-10-16T02:21:02;99974.22;;;18.43;58.46
26859;BME280;14429;48.346;16.338;2022-10-16T02:23:36;99974.13;;;18.35;59.01
26859;BME280;14429;48.346;16.338;2022-10-16T02:26:13;99985.56;;;18.10;60.68
26859;BME280;14429;48.346;16.338;2022-10-16T02:28:42;99984.69;;;18.19;59.90
26859;BME280;14429;48.346;16.338;2022-10-16T02:31:11;99991.06;;;18.28;59.48
26859;BME280;14429;48.346;16.338;2022-10-16T02:33:42;99992.06;;;18.36;59.00
26859;BME280;14429;48.346;16.338;2022-10-16T02:36:09;99998.59;;;18.34;58.91
26859;BME280;14429;48.346;16.338;2022-10-16T02:38:35;100008.25;;;18.36;58.85
26859;BME280;14429;48.346;16.338;2022-10-16T02:41:02;100002.41;;;18.40;58.85
26859;BME280;14429;48.346;16.338;2022-10-16T02:43:28;100001.97;;;18.45;58.75
26859;BME280;14429;48.346;16.338;2022-10-16T02:45:54;99994.53;;;18.47;58.56
26859;BME280;14429;48.346;16.338;2022-10-16T02:48:19;99988.56;;;18.53;58.41
26859;BME280;14429;48.346;16.338;2022-10-16T02:50:46;99995.38;;;18.57;58.25
26859;BME280;14429;48.346;16.338;2022-10-16T02:53:11;99990.81;;;18.57;58.23
26859;BME280;14429;48.346;16.338;2022-10-16T02:55:37;100002.38;;;18.50;58.62
26859;BME280;14429;48.346;16.338;2022-10-16T02:58:02;99996.00;;;18.51;58.67
26859;BME280;14429;48.346;16.338;2022-10-16T03:00:28;100001.38;;;18.51;58.43
26859;BME280;14429;48.346;16.338;2022-10-16T03:02:53;100000.66;;;18.49;58.37
26859;BME280;14429;48.346;16.338;2022-10-16T03:05:19;100002.53;;;18.48;58.51
26859;BME280;14429;48.346;16.338;2022-10-16T03:07:45;99994.88;;;18.44;58.61
26859;BME280;14429;48.346;16.338;2022-10-16T03:10:11;99991.59;;;18.40;58.73
26859;BME280;14429;48.346;16.338;2022-10-16T03:12:36;99989.16;;;18.47;58.49
26859;BME280;14429;48.346;16.338;2022-10-16T03:15:02;99994.53;;;18.47;58.47
26859;BME280;14429;48.346;16.338;2022-10-16T03:17:28;99999.81;;;18.48;58.47
26859;BME280;14429;48.346;16.338;2022-10-16T03:19:53;99999.94;;;18.47;58.54
26859;BME280;14429;48.346;16.338;2022-10-16T03:22:18;99993.97;;;18.53;58.25
26859;BME280;14429;48.346;16.338;2022-10-16T03:24:45;100007.03;;;18.57;58.14
26859;BME280;14429;48.346;16.338;2022-10-16T03:27:11;100005.50;;;18.55;58.31
26859;BME280;14429;48.346;16.338;2022-10-16T03:29:36;100013.59;;;18.55;58.18
26859;BME280;14429;48.346;16.338;2022-10-16T03:32:02;100012.03;;;18.52;58.19
26859;BME280;14429;48.346;16.338;2022-10-16T03:34:27;100019.84;;;18.55;58.09
26859;BME280;14429;48.346;16.338;2022-10-16T03:36:53;100016.59;;;18.52;58.30
26859;BME280;14429;48.346;16.338;2022-10-16T03:39:18;100021.56;;;18.47;58.39
26859;BME280;14429;48.346;16.338;2022-10-16T03:41:45;100021.56;;;18.47;58.40
26859;BME280;14429;48.346;16.338;2022-10-16T03:44:11;100020.88;;;18.45;58.48
26859;BME280;14429;48.346;16.338;2022-10-16T03:46:37;100028.72;;;18.20;58.68
26859;BME280;14429;48.346;16.338;2022-10-16T03:49:03;100030.53;;;18.38;58.58
26859;BME280;14429;48.346;16.338;2022-10-16T03:51:28;100034.66;;;18.42;58.57
26859;BME280;14429;48.346;16.338;2022-10-16T03:53:53;100035.25;;;18.36;58.60
26859;BME280;14429;48.346;16.338;2022-10-16T03:56:19;100038.81;;;18.36;58.62
26859;BME280;14429;48.346;16.338;2022-10-16T03:58:46;100043.75;;;18.41;58.62
26859;BME280;14429;48.346;16.338;2022-10-16T04:01:11;100036.50;;;18.51;58.27
26859;BME280;14429;48.346;16.338;2022-10-16T04:03:36;100043.16;;;18.47;58.31
26859;BME280;14429;48.346;16.338;2022-10-16T04:06:02;100052.88;;;18.40;58.57
26859;BME280;14429;48.346;16.338;2022-10-16T04:08:27;100047.16;;;18.43;58.55
26859;BME280;14429;48.346;16.338;2022-10-16T04:10:53;100046.03;;;18.45;58.39
26859;BME280;14429;48.346;16.338;2022-10-16T04:13:18;100055.41;;;18.41;58.53
26859;BME280;14429;48.346;16.338;2022-10-16T04:15:45;100054.28;;;18.35;58.56
26859;BME280;14429;48.346;16.338;2022-10-16T04:18:11;100057.41;;;18.39;58.65
26859;BME280;14429;48.346;16.338;2022-10-16T04:20:37;100060.81;;;18.51;58.20
26859;BME280;14429;48.346;16.338;2022-10-16T04:23:02;100053.97;;;18.47;58.31
26859;BME280;14429;48.346;16.338;2022-10-16T04:25:28;100049.56;;;18.46;58.30
26859;BME280;14429;48.346;16.338;2022-10-16T04:27:54;100048.56;;;18.47;58.27
26859;BME280;14429;48.346;16.338;2022-10-16T04:30:19;100055.41;;;18.51;58.12
26859;BME280;14429;48.346;16.338;2022-10-16T04:32:48;100056.38;;;18.50;58.12
26859;BME280;14429;48.346;16.338;2022-10-16T04:35:14;100060.09;;;18.49;58.11
26859;BME280;14429;48.346;16.338;2022-10-16T04:37:39;100064.78;;;18.47;58.32
26859;BME280;14429;48.346;16.338;2022-10-16T04:40:06;100066.63;;;18.56;57.94
26859;BME280;14429;48.346;16.338;2022-10-16T04:42:31;100075.28;;;18.50;58.16
26859;BME280;14429;48.346;16.338;2022-10-16T04:44:57;100059.38;;;18.47;58.15
26859;BME280;14429;48.346;16.338;2022-10-16T04:47:22;100067.38;;;18.20;58.44
26859;BME280;14429;48.346;16.338;2022-10-16T04:49:49;100059.56;;;18.36;58.48
26859;BME280;14429;48.346;16.338;2022-10-16T04:52:14;100063.25;;;18.16;58.95
26859;BME280;14429;48.346;16.338;2022-10-16T04:54:40;100071.34;;;18.35;58.54
26859;BME280;14429;48.346;16.338;2022-10-16T04:57:05;100079.72;;;18.41;58.29
26859;BME280;14429;48.346;16.338;2022-10-16T04:59:31;100079.59;;;17.96;57.61
26859;BME280;14429;48.346;16.338;2022-10-16T05:01:56;100081.97;;;17.71;59.64
26859;BME280;14429;48.346;16.338;2022-10-16T05:04:22;100081.03;;;18.09;59.47
26859;BME280;14429;48.346;16.338;2022-10-16T05:06:48;100086.41;;;18.28;58.82
26859;BME280;14429;48.346;16.338;2022-10-16T05:09:14;100093.25;;;18.32;58.63
26859;BME280;14429;48.346;16.338;2022-10-16T05:11:39;100089.84;;;18.30;57.54
26859;BME280;14429;48.346;16.338;2022-10-16T05:14:05;100083.16;;;18.15;59.21
26859;BME280;14429;48.346;16.338;2022-10-16T05:16:30;100083.44;;;18.31;58.71
26859;BME280;14429;48.346;16.338;2022-10-16T05:18:56;100082.88;;;18.37;58.55
26859;BME280;14429;48.346;16.338;2022-10-16T05:21:21;100095.81;;;18.34;58.67
26859;BME280;14429;48.346;16.338;2022-10-16T05:23:48;100091.25;;;18.34;58.51
26859;BME280;14429;48.346;16.338;2022-10-16T05:26:14;100085.84;;;18.34;58.67
26859;BME280;14429;48.346;16.338;2022-10-16T05:28:39;100096.09;;;18.40;58.32
26859;BME280;14429;48.346;16.338;2022-10-16T05:31:06;100093.25;;;18.32;58.53
26859;BME280;14429;48.346;16.338;2022-10-16T05:33:31;100098.94;;;18.20;58.74
26859;BME280;14429;48.346;16.338;2022-10-16T05:35:57;100099.78;;;18.20;58.91
26859;BME280;14429;48.346;16.338;2022-10-16T05:38:25;100102.63;;;18.37;58.47
26859;BME280;14429;48.346;16.338;2022-10-16T05:40:52;100103.19;;;18.41;58.28
26859;BME280;14429;48.346;16.338;2022-10-16T05:43:18;100098.34;;;18.16;57.92
26859;BME280;14429;48.346;16.338;2022-10-16T05:45:43;100101.22;;;18.34;58.58
26859;BME280;14429;48.346;16.338;2022-10-16T05:48:08;100097.78;;;18.41;58.31
26859;BME280;14429;48.346;16.338;2022-10-16T05:50:34;100112.00;;;18.34;58.35
26859;BME280;14429;48.346;16.338;2022-10-16T05:52:59;100115.97;;;18.39;58.36
26859;BME280;14429;48.346;16.338;2022-10-16T05:55:25;100123.38;;;18.37;58.39
26859;BME280;14429;48.346;16.338;2022-10-16T05:57:53;100136.88;;;18.37;58.29
26859;BME280;14429;48.346;16.338;2022-10-16T06:00:19;100136.69;;;17.92;59.96
26859;BME280;14429;48.346;16.338;2022-10-16T06:02:44;100143.97;;;17.43;62.81
26859;BME280;14429;48.346;16.338;2022-10-16T06:05:10;100139.47;;;17.62;61.52
26859;BME280;14429;48.346;16.338;2022-10-16T06:07:35;100147.25;;;18.04;59.70
26859;BME280;14429;48.346;16.338;2022-10-16T06:10:01;100140.59;;;18.17;59.21
26859;BME280;14429;48.346;16.338;2022-10-16T06:12:27;100147.75;;;17.89;60.29
26859;BME280;14429;48.346;16.338;2022-10-16T06:14:53;100159.47;;;17.99;59.94
26859;BME280;14429;48.346;16.338;2022-10-16T06:17:19;100159.31;;;18.09;59.49
26859;BME280;14429;48.346;16.338;2022-10-16T06:19:44;100168.28;;;18.19;59.13
26859;BME280;14429;48.346;16.338;2022-10-16T06:22:10;100163.38;;;17.95;61.28
26859;BME280;14429;48.346;16.338;2022-10-16T06:24:35;100169.72;;;18.23;58.89
26859;BME280;14429;48.346;16.338;2022-10-16T06:27:00;100176.25;;;18.30;58.69
26859;BME280;14429;48.346;16.338;2022-10-16T06:29:26;100172.53;;;18.31;58.53
26859;BME280;14429;48.346;16.338;2022-10-16T06:31:53;100180.50;;;18.23;59.01
26859;BME280;14429;48.346;16.338;2022-10-16T06:34:18;100178.91;;;18.02;60.09
26859;BME280;14429;48.346;16.338;2022-10-16T06:36:43;100193.72;;;18.26;59.01
26859;BME280;14429;48.346;16.338;2022-10-16T06:39:09;100187.25;;;17.90;60.99
26859;BME280;14429;48.346;16.338;2022-10-16T06:41:35;100189.84;;;18.01;60.29
26859;BME280;14429;48.346;16.338;2022-10-16T06:44:00;100191.19;;;17.77;61.69
26859;BME280;14429;48.346;16.338;2022-10-16T06:46:26;100187.53;;;17.96;60.18
26859;BME280;14429;48.346;16.338;2022-10-16T06:48:53;100204.59;;;17.87;60.75
26859;BME280;14429;48.346;16.338;2022-10-16T06:51:20;100203.22;;;18.11;59.48
26859;BME280;14429;48.346;16.338;2022-10-16T06:53:47;100212.34;;;18.10;59.53
26859;BME280;14429;48.346;16.338;2022-10-16T06:56:14;100219.69;;;18.08;59.87
26859;BME280;14429;48.346;16.338;2022-10-16T06:58:40;100223.44;;;17.49;63.85
26859;BME280;14429;48.346;16.338;2022-10-16T07:01:06;100225.28;;;17.87;60.86
26859;BME280;14429;48.346;16.338;2022-10-16T07:03:32;100217.47;;;18.13;59.53
26859;BME280;14429;48.346;16.338;2022-10-16T07:06:03;100223.34;;;17.98;60.54
26859;BME280;14429;48.346;16.338;2022-10-16T07:08:30;100228.56;;;17.81;62.11
26859;BME280;14429;48.346;16.338;2022-10-16T07:11:00;100235.91;;;17.99;60.09
26859;BME280;14429;48.346;16.338;2022-10-16T07:13:25;100226.25;;;18.15;59.27
26859;BME280;14429;48.346;16.338;2022-10-16T07:15:51;100231.69;;;18.25;58.95
26859;BME280;14429;48.346;16.338;2022-10-16T07:18:16;100222.25;;;17.71;62.77
26859;BME280;14429;48.346;16.338;2022-10-16T07:20:41;100227.03;;;17.88;60.90
26859;BME280;14429;48.346;16.338;2022-10-16T07:23:08;100224.69;;;17.15;65.72
26859;BME280;14429;48.346;16.338;2022-10-16T07:25:34;100227.66;;;17.42;64.01
26859;BME280;14429;48.346;16.338;2022-10-16T07:27:59;100221.41;;;17.61;62.18
26859;BME280;14429;48.346;16.338;2022-10-16T07:30:24;100218.41;;;17.64;61.96
26859;BME280;14429;48.346;16.338;2022-10-16T07:32:50;100231.34;;;18.00;60.10
26859;BME280;14429;48.346;16.338;2022-10-16T07:35:15;100232.03;;;17.63;62.73
26859;BME280;14429;48.346;16.338;2022-10-16T07:37:44;100232.28;;;17.51;63.32
26859;BME280;14429;48.346;16.338;2022-10-16T07:40:11;100234.31;;;17.67;61.86
26859;BME280;14429;48.346;16.338;2022-10-16T07:42:37;100237.81;;;17.88;60.34
26859;BME280;14429;48.346;16.338;2022-10-16T07:45:03;100239.66;;;17.87;60.67
26859;BME280;14429;48.346;16.338;2022-10-16T07:47:28;100238.34;;;17.82;60.94
26859;BME280;14429;48.346;16.338;2022-10-16T07:49:53;100247.53;;;18.09;59.89
26859;BME280;14429;48.346;16.338;2022-10-16T07:52:19;100249.38;;;17.99;60.22
26859;BME280;14429;48.346;16.338;2022-10-16T07:54:44;100242.44;;;18.06;59.79
26859;BME280;14429;48.346;16.338;2022-10-16T07:57:11;100244.72;;;18.10;59.82
26859;BME280;14429;48.346;16.338;2022-10-16T07:59:37;100252.56;;;17.84;61.88
26859;BME280;14429;48.346;16.338;2022-10-16T08:02:02;100261.38;;;17.86;61.56
26859;BME280;14429;48.346;16.338;2022-10-16T08:04:28;100265.25;;;17.93;60.84
26859;BME280;14429;48.346;16.338;2022-10-16T08:06:53;100256.06;;;18.05;60.04
26859;BME280;14429;48.346;16.338;2022-10-16T08:09:18;100273.56;;;17.51;64.78
26859;BME280;14429;48.346;16.338;2022-10-16T08:11:44;100278.97;;;17.31;66.25
26859;BME280;14429;48.346;16.338;2022-10-16T08:14:11;100285.81;;;17.35;65.20
26859;BME280;14429;48.346;16.338;2022-10-16T08:16:36;100278.91;;;17.62;62.70
26859;BME280;14429;48.346;16.338;2022-10-16T08:19:02;100281.94;;;17.78;61.32
26859;BME280;14429;48.346;16.338;2022-10-16T08:21:27;100285.50;;;17.78;61.57
26859;BME280;14429;48.346;16.338;2022-10-16T08:23:53;100286.56;;;17.96;60.25
26859;BME280;14429;48.346;16.338;2022-10-16T08:26:19;100289.63;;;17.82;61.99
26859;BME280;14429;48.346;16.338;2022-10-16T08:28:44;100280.16;;;17.97;60.66
26859;BME280;14429;48.346;16.338;2022-10-16T08:31:12;100287.25;;;17.98;60.62
26859;BME280;14429;48.346;16.338;2022-10-16T08:33:38;100283.34;;;18.02;60.43
26859;BME280;14429;48.346;16.338;2022-10-16T08:36:05;100287.25;;;17.98;60.33
26859;BME280;14429;48.346;16.338;2022-10-16T08:38:31;100290.94;;;17.87;61.88
26859;BME280;14429;48.346;16.338;2022-10-16T08:41:08;100299.13;;;17.77;63.58
26859;BME280;14429;48.346;16.338;2022-10-16T08:43:49;100293.72;;;17.77;62.23
26859;BME280;14429;48.346;16.338;2022-10-16T08:46:30;100300.19;;;17.65;63.75
26859;BME280;14429;48.346;16.338;2022-10-16T08:48:59;100293.50;;;17.89;61.54
26859;BME280;14429;48.346;16.338;2022-10-16T08:51:27;100291.63;;;17.80;62.52
26859;BME280;14429;48.346;16.338;2022-10-16T08:53:56;100298.25;;;17.76;62.16
26859;BME280;14429;48.346;16.338;2022-10-16T08:56:22;100304.28;;;17.89;61.33
26859;BME280;14429;48.346;16.338;2022-10-16T08:58:48;100305.56;;;17.65;64.11
26859;BME280;14429;48.346;16.338;2022-10-16T09:01:15;100308.41;;;17.63;64.75
26859;BME280;14429;48.346;16.338;2022-10-16T09:03:52;100308.63;;;18.01;60.53
26859;BME280;14429;48.346;16.338;2022-10-16T09:06:33;100307.09;;;18.08;60.31
26859;BME280;14429;48.346;16.338;2022-10-16T09:09:15;100304.38;;;18.08;61.22
26859;BME280;14429;48.346;16.338;2022-10-16T09:11:47;100305.78;;;18.02;61.25
26859;BME280;14429;48.346;16.338;2022-10-16T09:14:37;100313.81;;;17.93;62.41
26859;BME280;14429;48.346;16.338;2022-10-16T09:17:16;100310.38;;;18.11;61.22
26859;BME280;14429;48.346;16.338;2022-10-16T09:19:48;100306.09;;;18.08;61.22
26859;BME280;14429;48.346;16.338;2022-10-16T09:22:17;100305.66;;;18.04;62.04
26859;BME280;14429;48.346;16.338;2022-10-16T09:24:43;100310.38;;;18.11;60.74
26859;BME280;14429;48.346;16.338;2022-10-16T09:27:10;100316.25;;;18.25;59.76
26859;BME280;14429;48.346;16.338;2022-10-16T09:29:35;100317.94;;;18.26;59.40
26859;BME280;14429;48.346;16.338;2022-10-16T09:32:10;100329.13;;;18.12;61.02
26859;BME280;14429;48.346;16.338;2022-10-16T09:34:39;100329.69;;;18.07;61.66
26859;BME280;14429;48.346;16.338;2022-10-16T09:37:12;100336.78;;;18.08;61.18
26859;BME280;14429;48.346;16.338;2022-10-16T09:39:46;100337.81;;;18.16;62.68
26859;BME280;14429;48.346;16.338;2022-10-16T09:42:15;100329.16;;;18.22;60.08
26859;BME280;14429;48.346;16.338;2022-10-16T09:44:41;100342.84;;;18.30;60.52
26859;BME280;14429;48.346;16.338;2022-10-16T09:47:13;100334.41;;;18.23;60.63
26859;BME280;14429;48.346;16.338;2022-10-16T09:49:50;100335.69;;;18.19;60.89
26859;BME280;14429;48.346;16.338;2022-10-16T09:52:19;100344.44;;;18.03;63.17
26859;BME280;14429;48.346;16.338;2022-10-16T09:54:49;100342.78;;;18.11;61.03
26859;BME280;14429;48.346;16.338;2022-10-16T09:57:15;100348.03;;;18.12;61.13
26859;BME280;14429;48.346;16.338;2022-10-16T09:59:46;100343.22;;;18.16;61.15
26859;BME280;14429;48.346;16.338;2022-10-16T10:02:14;100351.56;;;18.04;65.08
26859;BME280;14429;48.346;16.338;2022-10-16T10:04:42;100348.91;;;17.93;63.91
26859;BME280;14429;48.346;16.338;2022-10-16T10:07:18;100340.81;;;18.22;60.21
26859;BME280;14429;48.346;16.338;2022-10-16T10:09:46;100342.19;;;18.08;62.70
26859;BME280;14429;48.346;16.338;2022-10-16T10:12:19;100337.28;;;18.31;59.85
26859;BME280;14429;48.346;16.338;2022-10-16T10:14:47;100338.13;;;18.22;60.74
26859;BME280;14429;48.346;16.338;2022-10-16T10:17:16;100344.78;;;18.18;62.77
26859;BME280;14429;48.346;16.338;2022-10-16T10:19:47;100331.03;;;18.31;60.21
26859;BME280;14429;48.346;16.338;2022-10-16T10:22:18;100338.81;;;18.24;64.17
26859;BME280;14429;48.346;16.338;2022-10-16T10:24:54;100333.41;;;18.24;64.26
26859;BME280;14429;48.346;16.338;2022-10-16T10:27:22;100338.53;;;18.18;61.92
26859;BME280;14429;48.346;16.338;2022-10-16T10:29:54;100334.25;;;18.15;64.01
26859;BME280;14429;48.346;16.338;2022-10-16T10:32:31;100320.41;;;18.38;59.73
26859;BME280;14429;48.346;16.338;2022-10-16T10:35:12;100313.59;;;18.44;59.60
26859;BME280;14429;48.346;16.338;2022-10-16T10:37:51;100310.44;;;18.39;64.58
26859;BME280;14429;48.346;16.338;2022-10-16T10:40:30;100308.91;;;18.46;59.83
26859;BME280;14429;48.346;16.338;2022-10-16T10:43:03;100327.25;;;18.52;59.25
26859;BME280;14429;48.346;16.338;2022-10-16T10:45:38;100331.97;;;18.59;58.62
26859;BME280;14429;48.346;16.338;2022-10-16T10:48:21;100325.09;;;18.46;60.97
26859;BME280;14429;48.346;16.338;2022-10-16T10:50:53;100327.41;;;18.60;58.73
26859;BME280;14429;48.346;16.338;2022-10-16T10:53:29;100334.38;;;18.53;61.73
26859;BME280;14429;48.346;16.338;2022-10-16T10:56:06;100325.41;;;18.62;61.35
26859;BME280;14429;48.346;16.338;2022-10-16T10:58:48;100324.44;;;18.63;61.08
26859;BME280;14429;48.346;16.338;2022-10-16T11:01:19;100317.59;;;18.68;58.44
26859;BME280;14429;48.346;16.338;2022-10-16T11:04:01;100318.47;;;18.68;58.40
26859;BME280;14429;48.346;16.338;2022-10-16T11:06:34;100317.59;;;18.68;58.78
26859;BME280;14429;48.346;16.338;2022-10-16T11:09:10;100313.31;;;18.65;58.95
26859;BME280;14429;48.346;16.338;2022-10-16T11:11:40;100310.22;;;18.70;58.77
26859;BME280;14429;48.346;16.338;2022-10-16T11:14:14;100314.47;;;18.72;58.50
26859;BME280;14429;48.346;16.338;2022-10-16T11:16:45;100304.50;;;18.73;60.37
26859;BME280;14429;48.346;16.338;2022-10-16T11:19:21;100307.78;;;18.76;58.53
26859;BME280;14429;48.346;16.338;2022-10-16T11:21:55;100304.50;;;18.73;59.53
26859;BME280;14429;48.346;16.338;2022-10-16T11:24:35;100299.69;;;18.76;66.07
26859;BME280;14429;48.346;16.338;2022-10-16T11:27:08;100297.28;;;18.73;59.21
26859;BME280;14429;48.346;16.338;2022-10-16T11:29:35;100299.69;;;18.76;61.91
26859;BME280;14429;48.346;16.338;2022-10-16T11:32:19;100301.41;;;18.77;60.42
26859;BME280;14429;48.346;16.338;2022-10-16T11:34:50;100296.00;;;18.77;59.15
26859;BME280;14429;48.346;16.338;2022-10-16T11:37:19;100287.75;;;18.79;63.18
26859;BME280;14429;48.346;16.338;2022-10-16T11:39:48;100296.28;;;18.74;58.99
26859;BME280;14429;48.346;16.338;2022-10-16T11:42:19;100293.44;;;18.76;64.54
26859;BME280;14429;48.346;16.338;2022-10-16T11:44:52;100299.13;;;18.82;65.51
26859;BME280;14429;48.346;16.338;2022-10-16T11:47:28;100290.28;;;18.80;63.10
26859;BME280;14429;48.346;16.338;2022-10-16T11:49:57;100301.09;;;18.80;59.30
26859;BME280;14429;48.346;16.338;2022-10-16T11:52:28;100299.41;;;18.79;59.25
26859;BME280;14429;48.346;16.338;2022-10-16T11:55:04;100302.84;;;18.81;58.90
26859;BME280;14429;48.346;16.338;2022-10-16T11:57:38;100299.13;;;18.82;63.56
26859;BME280;14429;48.346;16.338;2022-10-16T12:00:09;100295.69;;;18.80;64.14
26859;BME280;14429;48.346;16.338;2022-10-16T12:02:47;100302.84;;;18.81;66.05
26859;BME280;14429;48.346;16.338;2022-10-16T12:05:21;100285.78;;;18.81;60.43
26859;BME280;14429;48.346;16.338;2022-10-16T12:07:54;100291.88;;;18.83;59.29
26859;BME280;14429;48.346;16.338;2022-10-16T12:10:24;100294.41;;;18.84;59.77
26859;BME280;14429;48.346;16.338;2022-10-16T12:12:50;100286.63;;;18.90;59.81
26859;BME280;14429;48.346;16.338;2022-10-16T12:15:23;100285.50;;;18.93;60.79
26859;BME280;14429;48.346;16.338;2022-10-16T12:17:49;100280.09;;;19.02;62.62
26859;BME280;14429;48.346;16.338;2022-10-16T12:20:27;100278.41;;;19.11;63.40
26859;BME280;14429;48.346;16.338;2022-10-16T12:22:56;100279.09;;;19.13;65.68
26859;BME280;14429;48.346;16.338;2022-10-16T12:25:25;100284.91;;;18.99;58.22
26859;BME280;14429;48.346;16.338;2022-10-16T12:28:03;100286.66;;;19.00;59.31
26859;BME280;14429;48.346;16.338;2022-10-16T12:30:32;100293.19;;;18.97;58.45
26859;BME280;14429;48.346;16.338;2022-10-16T12:33:00;100283.19;;;19.17;62.36
26859;BME280;14429;48.346;16.338;2022-10-16T12:35:27;100292.28;;;19.34;63.25
26859;BME280;14429;48.346;16.338;2022-10-16T12:37:53;100280.78;;;19.14;58.78
26859;BME280;14429;48.346;16.338;2022-10-16T12:40:29;100283.47;;;19.14;59.26
26859;BME280;14429;48.346;16.338;2022-10-16T12:42:56;100283.38;;;19.15;60.99
26859;BME280;14429;48.346;16.338;2022-10-16T12:45:28;100290.19;;;19.10;58.61
26859;BME280;14429;48.346;16.338;2022-10-16T12:47:54;100291.16;;;19.27;62.95
26859;BME280;14429;48.346;16.338;2022-10-16T12:50:30;100288.03;;;19.13;58.45